createdAt,value
2023-04-22T00:02:29.673Z,91.46
2023-04-22T00:07:31.472Z,91.69
2023-04-22T00:12:34.406Z,92.46
2023-04-22T00:17:36.058Z,91.49
2023-04-22T00:22:37.729Z,91.56
2023-04-22T00:27:39.380Z,91.24
2023-04-22T00:32:41.045Z,92.36
2023-04-22T00:37:43.388Z,94.00
2023-04-22T00:42:45.853Z,94.22
2023-04-22T00:47:48.638Z,95.04
2023-04-22T00:52:50.692Z,95.09
2023-04-22T00:57:55.053Z,95.56
2023-04-22T01:02:58.011Z,95.00
2023-04-22T01:08:00.230Z,95.10
2023-04-22T01:13:01.890Z,94.15
2023-04-22T01:18:04.678Z,94.34
2023-04-22T01:23:10.145Z,93.20
2023-04-22T01:28:15.102Z,92.86
2023-04-22T01:33:17.380Z,93.07
2023-04-22T01:38:19.319Z,94.22
2023-04-22T01:43:21.019Z,94.94
2023-04-22T01:48:22.665Z,94.55
2023-04-22T01:53:24.861Z,95.37
2023-04-22T01:58:30.896Z,94.57
2023-04-22T02:03:32.953Z,94.94
2023-04-22T02:08:34.863Z,94.67
2023-04-22T02:13:38.269Z,93.32
2023-04-22T02:18:39.930Z,95.22
2023-04-22T02:23:43.149Z,94.93
2023-04-22T02:28:44.819Z,94.44
2023-04-22T02:33:46.421Z,93.85
2023-04-22T02:38:48.039Z,94.17
2023-04-22T02:43:49.907Z,93.52
2023-04-22T02:48:51.676Z,92.70
2023-04-22T02:53:53.507Z,92.90
2023-04-22T02:58:55.151Z,94.06
2023-04-22T03:03:56.961Z,92.12
2023-04-22T03:08:59.111Z,93.48
2023-04-22T03:14:00.785Z,92.55
2023-04-22T03:19:02.691Z,91.93
2023-04-22T03:24:04.521Z,91.90
2023-04-22T03:29:08.048Z,91.64
2023-04-22T03:34:09.820Z,91.57
2023-04-22T03:39:13.223Z,91.91
2023-04-22T03:44:16.613Z,92.39
2023-04-22T03:49:19.693Z,92.20
2023-04-22T03:54:21.748Z,93.01
2023-04-22T03:59:27.072Z,92.69
2023-04-22T04:04:30.292Z,92.56
2023-04-22T04:09:35.706Z,92.68
2023-04-22T04:14:37.421Z,92.48
2023-04-22T04:19:40.894Z,91.55
2023-04-22T04:24:44.140Z,90.71
2023-04-22T04:29:52.641Z,91.18
2023-04-22T04:35:09.992Z,90.94
2023-04-22T04:40:14.179Z,90.40
2023-04-22T04:45:34.377Z,90.85
2023-04-22T04:50:36.239Z,91.41
2023-04-22T04:55:38.764Z,91.38
2023-04-22T05:00:45.936Z,91.71
2023-04-22T05:05:49.846Z,92.34
2023-04-22T05:10:51.925Z,91.77
2023-04-22T05:15:54.457Z,91.40
2023-04-22T05:21:00.196Z,91.28
2023-04-22T05:26:02.065Z,92.19
2023-04-22T05:31:05.375Z,92.21
2023-04-22T05:36:07.386Z,92.82
2023-04-22T05:41:10.173Z,92.40
2023-04-22T05:46:11.909Z,93.58
2023-04-22T05:51:15.789Z,93.78
2023-04-22T05:56:17.682Z,94.78
2023-04-22T06:01:19.493Z,94.66
2023-04-22T06:06:34.286Z,95.15
2023-04-22T06:11:35.955Z,94.78
2023-04-22T06:16:38.738Z,96.50
2023-04-22T06:21:43.459Z,95.68
2023-04-22T06:26:45.257Z,96.31
2023-04-22T06:31:47.443Z,96.79
2023-04-22T06:36:49.189Z,97.06
2023-04-22T06:41:50.986Z,94.57
2023-04-22T06:47:07.895Z,94.55
2023-04-22T06:52:23.997Z,94.40
2023-04-22T06:57:28.430Z,94.84
2023-04-22T07:02:30.185Z,95.84
2023-04-22T07:07:32.060Z,95.87
2023-04-22T07:12:33.718Z,94.88
2023-04-22T07:17:35.507Z,94.73
2023-04-22T07:22:37.160Z,94.85
2023-04-22T07:27:38.826Z,94.61
2023-04-22T07:32:40.535Z,95.03
2023-04-22T07:37:44.972Z,94.08
2023-04-22T07:42:46.705Z,93.84
2023-04-22T07:47:48.433Z,92.88
2023-04-22T07:52:50.433Z,89.40
2023-04-22T07:57:52.069Z,88.61
2023-04-22T08:02:55.821Z,89.26
2023-04-22T08:07:57.552Z,89.13
2023-04-22T08:12:59.205Z,87.29
2023-04-22T08:18:00.923Z,86.32
2023-04-22T08:23:02.675Z,84.42
2023-04-22T08:28:04.342Z,81.44
2023-04-22T08:33:06.115Z,80.45
2023-04-22T08:38:07.795Z,79.59
2023-04-22T08:43:09.917Z,74.78
2023-04-22T08:48:13.929Z,73.15
2023-04-22T08:53:15.881Z,71.68
2023-04-22T08:58:17.799Z,70.06
2023-04-22T09:03:20.579Z,69.21
2023-04-22T09:08:22.477Z,66.19
2023-04-22T09:13:25.969Z,63.64
2023-04-22T09:18:27.754Z,64.67
2023-04-22T09:23:29.502Z,62.28
2023-04-22T09:28:31.275Z,59.72
2023-04-22T09:33:39.661Z,60.91
2023-04-22T09:38:41.726Z,62.57
2023-04-22T09:43:45.517Z,62.45
2023-04-22T09:48:47.449Z,61.19
2023-04-22T09:53:59.331Z,61.52
2023-04-22T09:59:01.425Z,62.81
2023-04-22T10:04:03.324Z,62.33
2023-04-22T10:09:06.150Z,62.34
2023-04-22T10:14:14.863Z,63.53
2023-04-22T10:19:21.145Z,63.27
2023-04-22T10:24:26.348Z,66.29
2023-04-22T10:29:36.651Z,68.16
2023-04-22T10:34:41.722Z,68.08
2023-04-22T10:40:08.747Z,65.80
2023-04-22T10:45:16.192Z,67.29
2023-04-22T10:50:31.527Z,65.37
2023-04-22T10:56:00.919Z,66.11
2023-04-22T11:01:15.136Z,65.66
2023-04-22T11:06:19.217Z,67.13
2023-04-22T11:11:20.918Z,67.30
2023-04-22T11:16:22.908Z,67.39
2023-04-22T11:21:24.971Z,67.93
2023-04-22T11:26:35.210Z,68.96
2023-04-22T11:31:36.962Z,74.79
2023-04-22T11:36:38.591Z,77.26
2023-04-22T11:41:41.733Z,78.22
2023-04-22T11:46:44.949Z,78.68
2023-04-22T11:51:56.505Z,80.79
2023-04-22T11:56:58.291Z,83.05
2023-04-22T12:02:00.317Z,82.46
2023-04-22T12:07:03.723Z,83.42
2023-04-22T12:12:05.606Z,83.08
2023-04-22T12:17:12.143Z,85.25
2023-04-22T12:22:27.468Z,87.21
2023-04-22T12:27:29.350Z,88.36
2023-04-22T12:32:30.975Z,88.63
2023-04-22T12:37:32.812Z,87.46
2023-04-22T12:42:34.446Z,89.48
2023-04-22T12:47:37.422Z,90.32
2023-04-22T12:52:39.355Z,90.13
2023-04-22T12:57:43.304Z,89.84
2023-04-22T13:02:48.197Z,91.46
2023-04-22T13:07:56.425Z,91.85
2023-04-22T13:13:17.578Z,92.88
2023-04-22T13:18:20.169Z,93.55
2023-04-22T13:23:23.364Z,95.11
2023-04-22T13:28:25.767Z,92.13
2023-04-22T13:33:27.471Z,91.29
2023-04-22T13:38:29.128Z,92.57
2023-04-22T13:43:30.922Z,91.28
2023-04-22T13:48:32.539Z,91.98
2023-04-22T13:53:34.682Z,92.89
2023-04-22T13:58:36.562Z,91.89
2023-04-22T14:03:40.645Z,91.66
2023-04-22T14:08:43.153Z,93.14
2023-04-22T14:13:45.359Z,92.37
2023-04-22T14:18:47.935Z,92.87
2023-04-22T14:23:49.929Z,91.95
2023-04-22T14:28:51.533Z,90.40
2023-04-22T14:33:53.336Z,90.30
2023-04-22T14:38:54.882Z,89.19
2023-04-22T14:43:57.069Z,89.55
2023-04-22T14:48:58.657Z,90.74
2023-04-22T14:54:00.296Z,91.57
2023-04-22T14:59:01.923Z,90.84
2023-04-22T15:04:03.728Z,91.80
2023-04-22T15:09:05.586Z,91.80
2023-04-22T15:14:07.271Z,90.71
2023-04-22T15:19:08.944Z,91.62
2023-04-22T15:24:11.450Z,91.84
2023-04-22T15:29:13.886Z,93.27
2023-04-22T15:34:15.855Z,92.90
2023-04-22T15:39:17.533Z,93.87
2023-04-22T15:44:19.315Z,93.44
2023-04-22T15:49:21.087Z,93.53
2023-04-22T15:54:22.738Z,94.28
2023-04-22T15:59:24.370Z,92.93
2023-04-22T16:04:26.373Z,93.18
2023-04-22T16:09:28.094Z,92.94
2023-04-22T16:14:29.726Z,93.18
2023-04-22T16:19:31.412Z,88.78
2023-04-22T16:24:33.140Z,87.06
2023-04-22T16:29:34.703Z,86.41
2023-04-22T16:34:36.986Z,87.35
2023-04-22T16:39:38.724Z,86.65
2023-04-22T16:44:40.448Z,85.04
2023-04-22T16:49:42.704Z,84.32
2023-04-22T16:54:45.064Z,84.28
2023-04-22T16:59:46.654Z,84.84
2023-04-22T17:04:48.364Z,85.12
2023-04-22T17:09:50.034Z,84.11
2023-04-22T17:14:51.721Z,85.00
2023-04-22T17:19:53.375Z,85.57
2023-04-22T17:24:56.723Z,84.77
2023-04-22T17:29:58.374Z,84.35
2023-04-22T17:35:00.218Z,83.40
2023-04-22T17:40:02.960Z,82.08
2023-04-22T17:45:08.164Z,80.21
2023-04-22T17:50:09.961Z,81.63
2023-04-22T17:55:11.814Z,80.81
2023-04-22T18:00:18.162Z,81.57
2023-04-22T18:05:20.569Z,81.98
2023-04-22T18:10:22.310Z,82.35
2023-04-22T18:15:24.009Z,81.92
2023-04-22T18:20:25.727Z,81.47
2023-04-22T18:25:27.752Z,80.64
2023-04-22T18:30:30.827Z,82.03
2023-04-22T18:35:35.318Z,83.89
2023-04-22T18:40:36.935Z,83.91
2023-04-22T18:45:38.659Z,85.10
2023-04-22T18:50:40.398Z,86.05
2023-04-22T18:55:46.016Z,86.85
2023-04-22T19:00:47.652Z,87.33
2023-04-22T19:05:49.216Z,87.69
2023-04-22T19:10:50.907Z,88.34
2023-04-22T19:15:52.717Z,89.73
2023-04-22T19:20:54.470Z,89.88
2023-04-22T19:25:56.097Z,90.08
2023-04-22T19:31:00.043Z,90.58
2023-04-22T19:36:01.713Z,90.56
2023-04-22T19:41:03.366Z,90.80
2023-04-22T19:46:05.334Z,91.66
2023-04-22T19:51:07.152Z,91.06
2023-04-22T19:56:09.487Z,91.47
2023-04-22T20:01:13.012Z,91.94
2023-04-22T20:06:16.426Z,92.00
2023-04-22T20:11:18.096Z,92.12
2023-04-22T20:16:20.912Z,93.13
2023-04-22T20:21:23.126Z,93.00
2023-04-22T20:26:28.327Z,93.28
2023-04-22T20:31:30.491Z,93.95
2023-04-22T20:36:32.880Z,93.63
2023-04-22T20:41:40.536Z,94.85
2023-04-22T20:46:42.900Z,95.15
2023-04-22T20:51:44.811Z,94.25
2023-04-22T20:56:47.260Z,94.71
2023-04-22T21:01:50.050Z,94.96
2023-04-22T21:06:52.739Z,94.95
2023-04-22T21:11:54.706Z,95.02
2023-04-22T21:16:59.785Z,94.34
2023-04-22T21:22:07.314Z,94.12
2023-04-22T21:27:09.589Z,94.03
2023-04-22T21:32:11.417Z,95.42
2023-04-22T21:37:14.058Z,95.30
2023-04-22T21:42:15.690Z,94.08
2023-04-22T21:47:18.305Z,94.53
2023-04-22T21:52:19.967Z,94.44
2023-04-22T21:57:21.613Z,95.23
2023-04-22T22:02:23.623Z,94.87
2023-04-22T22:07:26.932Z,95.07
2023-04-22T22:12:28.597Z,94.71
2023-04-22T22:17:30.283Z,95.23
2023-04-22T22:22:33.048Z,96.21
2023-04-22T22:27:36.844Z,95.56
2023-04-22T22:32:38.548Z,95.97
2023-04-22T22:37:48.372Z,96.62
2023-04-22T22:42:50.079Z,96.25
2023-04-22T22:47:53.546Z,96.95
2023-04-22T22:52:55.525Z,96.59
2023-04-22T22:57:57.190Z,97.02
2023-04-22T23:02:59.148Z,97.18
2023-04-22T23:08:00.943Z,97.70
2023-04-22T23:13:02.635Z,97.81
2023-04-22T23:18:04.319Z,98.45
2023-04-22T23:23:06.297Z,98.07
2023-04-22T23:28:08.158Z,98.56
2023-04-22T23:33:14.918Z,99.30
2023-04-22T23:38:16.713Z,99.35
2023-04-22T23:43:18.316Z,99.28
2023-04-22T23:48:19.940Z,99.40
2023-04-22T23:53:21.558Z,98.79
2023-04-22T23:58:23.335Z,99.02
